Pine Mountain, GA (31822)

3:14 AM EST on February 12, 2016 (GMT -0500)
Piedmont | | Change Station
CLOSE
Current Station
Personal Weather Station
Location: Pine Mountain, GA
Elevation: 820 ft
Nearby Weather Stations

Elev 820 ft 32.79 °N, 84.98 °W | Updated 4 minutes ago

Clear
Clear
39.4 °F
Feels Like 39 °F
N
1.7
Wind Variable Wind from NNE

Today
High -- | Low -- °F
--% Chance of Precip.
Yesterday
High -- | Low -- °F
Precip. -- in
Pressure 30.14 in
Visibility 10.0 miles
Clouds Clear
Windchill 39 °F
Dew Point 32 °F
Humidity 74%
Rainfall 0.00 in
Snow Depth Not available.
7:26 AM 6:21 PM
Waxing Crescent, 18% visible
METAR KLGC 120755Z AUTO 00000KT 10SM CLR 06/01 A3014 RMK AO2 T00580005
Pressure 30.14 in
Visibility 10.0 miles
Clouds Clear
Windchill 39 °F
Dew Point 32 °F
Humidity 74%
Rainfall 0.00 in
Snow Depth Not available.
7:26 AM 6:21 PM
Waxing Crescent, 18% visible
METAR KLGC 120755Z AUTO 00000KT 10SM CLR 06/01 A3014 RMK AO2 T00580005

10-Day Weather Forecast

Almanac

Astronomy

Feb. 12, 2016 Rise Set
Actual Time
Civil Twilight
Nautical Twilight
Astronomical Twilight
Moon
Length of Visible Light
Length of Day
Tomorrow will be .
, % of the Moon is Illuminated

Today's Extremes

State Highs State Lows

Community

WunderPhotos

Upload Photos

1,892,278 photos uploaded!

WunderBlog® & News

Nearby

Air Quality

  Air Quality AQ Index Pollutant
Not available.

Snow Depth

Station Depth Elevation

Earthquake Activity

City Distance Mag. Time & Date
Minimum magnitude displayed is 2.5.

Coastal Water Temperatures

Place Temperature

Stations

Nearby Weather Stations

Station Location Temp. Windchill Dew Point Humidity Wind Precip. Elev Updated Type
                   

Watches & Warnings

There are currently no watches in effect.